sensor_id;sensor_type;location;lat;lon;timestamp;P1;durP1;ratioP1;P2;durP2;ratioP2
49820;SDS011;36893;52.520;13.450;2023-09-18T00:03:06;6.75;;;3.90;;
49820;SDS011;36893;52.520;13.450;2023-09-18T00:13:07;6.27;;;4.10;;
49820;SDS011;36893;52.520;13.450;2023-09-18T00:23:08;8.67;;;3.87;;
49820;SDS011;36893;52.520;13.450;2023-09-18T00:33:09;6.38;;;4.00;;
49820;SDS011;36893;52.520;13.450;2023-09-18T00:43:10;6.87;;;4.33;;
49820;SDS011;36893;52.520;13.450;2023-09-18T00:53:13;6.97;;;3.93;;
49820;SDS011;36893;52.520;13.450;2023-09-18T01:03:21;7.60;;;4.20;;
49820;SDS011;36893;52.520;13.450;2023-09-18T01:13:23;6.75;;;4.10;;
49820;SDS011;36893;52.520;13.450;2023-09-18T01:23:30;7.00;;;4.07;;
49820;SDS011;36893;52.520;13.450;2023-09-18T01:33:31;6.73;;;4.17;;
49820;SDS011;36893;52.520;13.450;2023-09-18T01:43:34;5.43;;;3.60;;
49820;SDS011;36893;52.520;13.450;2023-09-18T01:53:35;7.03;;;4.60;;
49820;SDS011;36893;52.520;13.450;2023-09-18T02:03:35;6.17;;;3.40;;
49820;SDS011;36893;52.520;13.450;2023-09-18T02:13:36;8.80;;;4.47;;
49820;SDS011;36893;52.520;13.450;2023-09-18T02:23:37;8.00;;;4.00;;
49820;SDS011;36893;52.520;13.450;2023-09-18T02:33:38;5.10;;;3.23;;
49820;SDS011;36893;52.520;13.450;2023-09-18T02:43:39;7.37;;;3.23;;
49820;SDS011;36893;52.520;13.450;2023-09-18T02:53:40;7.37;;;4.03;;
49820;SDS011;36893;52.520;13.450;2023-09-18T03:03:40;4.33;;;3.10;;
49820;SDS011;36893;52.520;13.450;2023-09-18T03:13:45;7.07;;;3.35;;
49820;SDS011;36893;52.520;13.450;2023-09-18T03:23:47;6.60;;;3.60;;
49820;SDS011;36893;52.520;13.450;2023-09-18T03:33:47;6.10;;;3.63;;
49820;SDS011;36893;52.520;13.450;2023-09-18T03:43:48;5.07;;;2.93;;
49820;SDS011;36893;52.520;13.450;2023-09-18T03:53:49;7.63;;;3.85;;
49820;SDS011;36893;52.520;13.450;2023-09-18T04:03:51;6.07;;;3.37;;
49820;SDS011;36893;52.520;13.450;2023-09-18T04:13:52;6.25;;;3.90;;
49820;SDS011;36893;52.520;13.450;2023-09-18T04:23:53;5.40;;;3.30;;
49820;SDS011;36893;52.520;13.450;2023-09-18T04:33:57;6.13;;;3.35;;
49820;SDS011;36893;52.520;13.450;2023-09-18T04:43:58;6.97;;;3.47;;
49820;SDS011;36893;52.520;13.450;2023-09-18T04:53:59;6.53;;;3.45;;
49820;SDS011;36893;52.520;13.450;2023-09-18T05:04:00;7.00;;;4.07;;
49820;SDS011;36893;52.520;13.450;2023-09-18T05:14:00;7.23;;;4.23;;
49820;SDS011;36893;52.520;13.450;2023-09-18T05:24:01;11.17;;;3.60;;
49820;SDS011;36893;52.520;13.450;2023-09-18T05:34:02;5.70;;;3.30;;
49820;SDS011;36893;52.520;13.450;2023-09-18T05:44:02;5.47;;;3.50;;
49820;SDS011;36893;52.520;13.450;2023-09-18T05:54:05;8.17;;;4.17;;
49820;SDS011;36893;52.520;13.450;2023-09-18T06:04:05;5.63;;;3.77;;
49820;SDS011;36893;52.520;13.450;2023-09-18T06:14:06;6.13;;;3.67;;
49820;SDS011;36893;52.520;13.450;2023-09-18T06:24:06;5.87;;;3.63;;
49820;SDS011;36893;52.520;13.450;2023-09-18T06:34:08;8.18;;;3.55;;
49820;SDS011;36893;52.520;13.450;2023-09-18T06:44:08;10.93;;;3.67;;
49820;SDS011;36893;52.520;13.450;2023-09-18T06:54:09;11.13;;;4.33;;
49820;SDS011;36893;52.520;13.450;2023-09-18T07:04:10;8.80;;;3.90;;
49820;SDS011;36893;52.520;13.450;2023-09-18T07:14:11;9.73;;;4.00;;
49820;SDS011;36893;52.520;13.450;2023-09-18T07:24:11;7.63;;;3.53;;
49820;SDS011;36893;52.520;13.450;2023-09-18T07:34:16;5.88;;;3.90;;
49820;SDS011;36893;52.520;13.450;2023-09-18T07:44:20;5.75;;;3.30;;
49820;SDS011;36893;52.520;13.450;2023-09-18T07:54:21;5.15;;;3.35;;
49820;SDS011;36893;52.520;13.450;2023-09-18T08:04:22;5.07;;;2.93;;
49820;SDS011;36893;52.520;13.450;2023-09-18T08:14:22;5.90;;;2.90;;
49820;SDS011;36893;52.520;13.450;2023-09-18T08:24:23;5.67;;;2.93;;
49820;SDS011;36893;52.520;13.450;2023-09-18T08:34:24;3.97;;;2.70;;
49820;SDS011;36893;52.520;13.450;2023-09-18T08:44:25;6.57;;;3.30;;
49820;SDS011;36893;52.520;13.450;2023-09-18T08:54:27;5.22;;;3.05;;
49820;SDS011;36893;52.520;13.450;2023-09-18T09:04:29;5.03;;;2.60;;
49820;SDS011;36893;52.520;13.450;2023-09-18T09:14:30;6.37;;;3.00;;
49820;SDS011;36893;52.520;13.450;2023-09-18T09:24:40;4.33;;;2.43;;
49820;SDS011;36893;52.520;13.450;2023-09-18T09:44:44;4.10;;;2.35;;
49820;SDS011;36893;52.520;13.450;2023-09-18T09:54:45;4.82;;;3.13;;
49820;SDS011;36893;52.520;13.450;2023-09-18T10:04:46;5.07;;;2.85;;
49820;SDS011;36893;52.520;13.450;2023-09-18T10:14:49;6.35;;;2.58;;
49820;SDS011;36893;52.520;13.450;2023-09-18T10:24:57;4.45;;;2.72;;
49820;SDS011;36893;52.520;13.450;2023-09-18T10:35:09;6.72;;;2.72;;
49820;SDS011;36893;52.520;13.450;2023-09-18T10:45:12;8.55;;;3.30;;
49820;SDS011;36893;52.520;13.450;2023-09-18T10:55:14;4.85;;;2.67;;
49820;SDS011;36893;52.520;13.450;2023-09-18T11:05:25;4.53;;;2.60;;
49820;SDS011;36893;52.520;13.450;2023-09-18T11:15:31;5.03;;;2.75;;
49820;SDS011;36893;52.520;13.450;2023-09-18T11:35:50;6.55;;;2.75;;
49820;SDS011;36893;52.520;13.450;2023-09-18T11:45:53;5.30;;;2.28;;
49820;SDS011;36893;52.520;13.450;2023-09-18T11:55:55;4.40;;;2.58;;
49820;SDS011;36893;52.520;13.450;2023-09-18T12:05:58;5.45;;;2.90;;
49820;SDS011;36893;52.520;13.450;2023-09-18T12:16:05;4.63;;;2.83;;
49820;SDS011;36893;52.520;13.450;2023-09-18T12:26:05;5.03;;;2.75;;
49820;SDS011;36893;52.520;13.450;2023-09-18T12:36:10;4.70;;;2.92;;
49820;SDS011;36893;52.520;13.450;2023-09-18T12:46:10;4.10;;;2.10;;
49820;SDS011;36893;52.520;13.450;2023-09-18T12:56:12;5.88;;;2.90;;
49820;SDS011;36893;52.520;13.450;2023-09-18T13:06:17;4.27;;;2.37;;
49820;SDS011;36893;52.520;13.450;2023-09-18T13:16:19;4.32;;;2.50;;
49820;SDS011;36893;52.520;13.450;2023-09-18T13:26:22;5.53;;;2.70;;
49820;SDS011;36893;52.520;13.450;2023-09-18T13:36:23;4.43;;;2.50;;
49820;SDS011;36893;52.520;13.450;2023-09-18T13:46:23;6.17;;;2.60;;
49820;SDS011;36893;52.520;13.450;2023-09-18T13:56:24;6.00;;;2.57;;
49820;SDS011;36893;52.520;13.450;2023-09-18T14:06:27;5.05;;;2.53;;
49820;SDS011;36893;52.520;13.450;2023-09-18T14:16:28;5.20;;;2.43;;
49820;SDS011;36893;52.520;13.450;2023-09-18T14:26:29;7.35;;;2.85;;
49820;SDS011;36893;52.520;13.450;2023-09-18T14:36:30;4.37;;;2.20;;
49820;SDS011;36893;52.520;13.450;2023-09-18T14:46:32;6.00;;;2.38;;
49820;SDS011;36893;52.520;13.450;2023-09-18T14:56:33;6.88;;;2.35;;
49820;SDS011;36893;52.520;13.450;2023-09-18T15:06:54;3.35;;;1.88;;
49820;SDS011;36893;52.520;13.450;2023-09-18T15:16:54;3.53;;;1.80;;
49820;SDS011;36893;52.520;13.450;2023-09-18T15:26:55;9.65;;;1.95;;
49820;SDS011;36893;52.520;13.450;2023-09-18T15:36:56;3.75;;;1.70;;
49820;SDS011;36893;52.520;13.450;2023-09-18T15:46:57;4.80;;;1.70;;
49820;SDS011;36893;52.520;13.450;2023-09-18T15:56:58;6.20;;;1.47;;
49820;SDS011;36893;52.520;13.450;2023-09-18T16:06:58;3.30;;;1.33;;
49820;SDS011;36893;52.520;13.450;2023-09-18T16:16:59;5.20;;;1.63;;
49820;SDS011;36893;52.520;13.450;2023-09-18T16:27:04;6.50;;;1.73;;
49820;SDS011;36893;52.520;13.450;2023-09-18T16:37:07;4.60;;;1.90;;
49820;SDS011;36893;52.520;13.450;2023-09-18T16:47:08;3.75;;;1.52;;
49820;SDS011;36893;52.520;13.450;2023-09-18T16:57:09;3.67;;;1.90;;
49820;SDS011;36893;52.520;13.450;2023-09-18T17:07:12;5.20;;;1.95;;
49820;SDS011;36893;52.520;13.450;2023-09-18T17:17:13;5.07;;;1.80;;
49820;SDS011;36893;52.520;13.450;2023-09-18T17:27:15;7.43;;;2.17;;
49820;SDS011;36893;52.520;13.450;2023-09-18T17:37:16;4.70;;;2.13;;
49820;SDS011;36893;52.520;13.450;2023-09-18T17:47:17;7.93;;;2.10;;
49820;SDS011;36893;52.520;13.450;2023-09-18T17:57:17;6.00;;;2.07;;
49820;SDS011;36893;52.520;13.450;2023-09-18T18:07:18;5.97;;;2.03;;
49820;SDS011;36893;52.520;13.450;2023-09-18T18:17:19;7.63;;;2.37;;
49820;SDS011;36893;52.520;13.450;2023-09-18T18:27:19;4.63;;;1.87;;
49820;SDS011;36893;52.520;13.450;2023-09-18T18:37:20;8.03;;;1.87;;
49820;SDS011;36893;52.520;13.450;2023-09-18T18:47:20;5.97;;;2.10;;
49820;SDS011;36893;52.520;13.450;2023-09-18T18:57:21;3.47;;;1.65;;
49820;SDS011;36893;52.520;13.450;2023-09-18T19:07:22;4.05;;;1.73;;
49820;SDS011;36893;52.520;13.450;2023-09-18T19:17:23;6.90;;;1.70;;
49820;SDS011;36893;52.520;13.450;2023-09-18T19:27:24;4.30;;;1.57;;
49820;SDS011;36893;52.520;13.450;2023-09-18T19:37:24;3.97;;;1.33;;
49820;SDS011;36893;52.520;13.450;2023-09-18T19:47:25;3.05;;;1.60;;
49820;SDS011;36893;52.520;13.450;2023-09-18T19:57:26;6.97;;;1.55;;
49820;SDS011;36893;52.520;13.450;2023-09-18T20:07:27;6.10;;;1.70;;
49820;SDS011;36893;52.520;13.450;2023-09-18T20:17:28;3.60;;;1.63;;
49820;SDS011;36893;52.520;13.450;2023-09-18T20:27:29;2.57;;;1.40;;
49820;SDS011;36893;52.520;13.450;2023-09-18T20:37:31;6.27;;;1.37;;
49820;SDS011;36893;52.520;13.450;2023-09-18T20:47:32;3.78;;;1.80;;
49820;SDS011;36893;52.520;13.450;2023-09-18T20:57:33;3.72;;;1.42;;
49820;SDS011;36893;52.520;13.450;2023-09-18T21:07:34;2.50;;;1.13;;
49820;SDS011;36893;52.520;13.450;2023-09-18T21:17:34;2.43;;;1.20;;
49820;SDS011;36893;52.520;13.450;2023-09-18T21:27:35;4.03;;;1.07;;
49820;SDS011;36893;52.520;13.450;2023-09-18T21:37:36;3.53;;;1.33;;
49820;SDS011;36893;52.520;13.450;2023-09-18T21:47:37;3.67;;;1.07;;
49820;SDS011;36893;52.520;13.450;2023-09-18T21:57:39;2.60;;;1.05;;
49820;SDS011;36893;52.520;13.450;2023-09-18T22:07:39;2.90;;;1.30;;
49820;SDS011;36893;52.520;13.450;2023-09-18T22:17:40;2.35;;;1.10;;
49820;SDS011;36893;52.520;13.450;2023-09-18T22:27:41;3.17;;;1.00;;
49820;SDS011;36893;52.520;13.450;2023-09-18T22:37:43;8.05;;;1.30;;
49820;SDS011;36893;52.520;13.450;2023-09-18T22:58:43;1.55;;;0.80;;
49820;SDS011;36893;52.520;13.450;2023-09-18T23:08:46;2.05;;;0.77;;
49820;SDS011;36893;52.520;13.450;2023-09-18T23:28:50;1.97;;;0.90;;
49820;SDS011;36893;52.520;13.450;2023-09-18T23:38:51;1.73;;;0.83;;
49820;SDS011;36893;52.520;13.450;2023-09-18T23:48:52;2.83;;;0.80;;
49820;SDS011;36893;52.520;13.450;2023-09-18T23:58:54;2.27;;;0.80;;
